Nearby METAR Reports

 

KSJC - San Jose, California, USA
Distance from station: NE 9mi, 14km
Updated: Sun, 12-09-2018 1:53pm CST
Haze, Mostly cloudy
Haze, Mostly cloudy
 Wind from NW
Wind: NW 3 mph , 6 km/h
Temperature: 54°F , 12°C
Dew Point: 46°F , 8°C
Humidity: 77%
Barometer: 30.31 inHg , 1026.4 hPa
Summary: Haze
Clouds: Mostly cloudy
Visibility: 6 miles , 10 km
Cloud details: Few Clouds 100 ft
Partly cloudy 1500 ft
Mostly cloudy 7000 ft
2018/12/09 19:53 KSJC 091953Z 31003KT 6SM HZ FEW001 SCT015 BKN070 12/08 A3031 RMK AO2 SLP264 T01170078
KNUQ - Moffett Nas/Mtn, California, USA
Distance from station: N 9mi, 14km
Updated: Sun, 12-09-2018 1:56pm CST
Clear
Clear
 Wind from NNE
Wind: NNE 3 mph , 6 km/h
Temperature: 50°F , 10°C
Dew Point: 45°F , 7°C
Humidity: 82%
Barometer: 30.32 inHg , 1026.8 hPa
Clouds: Clear
Visibility: 10 miles , 16 km
2018/12/09 19:56 KNUQ 091956Z 02003KT 10SM CLR 10/07 A3032 RMK AO2 SLP269 T01000072 $
 
KPAO - Palo Alto, California, USA
Distance from station: NNW 14mi, 23km
Updated: Sun, 12-09-2018 1:47pm CST
Overcast
Overcast
 Wind from calm
Wind: Calm
Temperature: 52°F , 11°C
Dew Point: 46°F , 8°C
Humidity: 82%
Barometer: 30.33 inHg , 1027.1 hPa
Clouds: Overcast
Visibility: 10 miles , 16 km
Cloud details: Few Clouds 2000 ft
Overcast 7000 ft
2018/12/09 19:47 KPAO 091947Z 00000KT 10SM FEW020 OVC070 11/08 A3033
KRHV - San Jose/Reid, California, USA
Distance from station: ENE 12mi, 19km
Updated: Sun, 12-09-2018 1:47pm CST
Overcast
Overcast
 Wind from NNW
Wind: NNW 7 mph , 11 km/h
Temperature: 54°F , 12°C
Dew Point: 46°F , 8°C
Humidity: 77%
Barometer: 30.28 inHg , 1025.4 hPa
Clouds: Overcast
Visibility: 8 miles , 13 km
Cloud details: Mostly cloudy 5000 ft
Overcast 6000 ft
2018/12/09 19:47 KRHV 091947Z 34006KT 8SM BKN050 OVC060 12/08 A3028
 
KOAK - Oakland, California, USA
Distance from station: NNW 31mi, 50km
Updated: Sun, 12-09-2018 1:53pm CST
Haze, Overcast
Haze, Overcast
 Wind from W
Wind: W 7 mph , 11 km/h
Temperature: 52°F , 11°C
Dew Point: 46°F , 8°C
Humidity: 82%
Barometer: 30.32 inHg , 1026.8 hPa
Summary: Haze
Clouds: Overcast
Visibility: 4 miles , 6 km
Cloud details: Few Clouds 800 ft
Mostly cloudy 18000 ft
Overcast 20000 ft
2018/12/09 19:53 KOAK 091953Z 28006KT 4SM HZ FEW008 BKN180 OVC200 11/08 A3032 RMK AO2 SLP267 T01110078
KSQL - San Carlos Airpo, California, USA
Distance from station: NW 21mi, 34km
Updated: Sun, 12-09-2018 1:47pm CST
Mist, Overcast
Mist, Overcast
 Wind from varies
Wind: varies 3 mph , 6 km/h
Temperature: 50°F , 10°C
Dew Point: 46°F , 8°C
Humidity: 88%
Barometer: 30.32 inHg , 1026.8 hPa
Summary: Mist
Clouds: Overcast
Visibility: 6 miles , 10 km
Cloud details: Overcast 18000 ft
2018/12/09 19:47 KSQL 091947Z VRB03KT 6SM BR OVC180 10/08 A3032
 
KSFO - San Francisco, California, USA
Distance from station: NW 30mi, 49km
Updated: Sun, 12-09-2018 1:56pm CST
Mist, Overcast
Mist, Overcast
 Wind from NNE
Wind: NNE 6 mph , 9 km/h
Temperature: 50°F , 10°C
Wind Chill: 48°F , 9°C
Dew Point: 46°F , 8°C
Humidity: 88%
Barometer: 30.31 inHg , 1026.4 hPa
Summary: Mist
Clouds: Overcast
Visibility: 5 miles , 8 km
Cloud details: Few Clouds 900 ft
Mostly cloudy 13000 ft
Overcast 18000 ft
2018/12/09 19:56 KSFO 091956Z 02005KT 5SM BR FEW009 BKN130 OVC180 10/08 A3031 RMK AO2 SLP263 T01000078
KE16 - San Martin, California, USA
Distance from station: ESE 27mi, 43km
Updated: Sun, 12-09-2018 1:50pm CST
Clear
Clear
 Wind from calm
Wind: Calm
Temperature: 54°F , 12°C
Dew Point: 46°F , 8°C
Humidity: 77%
Barometer: 30.32 inHg , 1026.8 hPa
Clouds: Clear
Visibility: 10 miles , 16 km
2018/12/09 19:50 KE16 091950Z AUTO 00000KT 10SM CLR 12/08 A3032 RMK AO2
 
KWVI - Watsonville, California, USA
Distance from station: SSE 27mi, 44km
Updated: Sun, 12-09-2018 1:53pm CST
Clear
Clear
 Wind from ESE
Wind: ESE 5 mph , 7 km/h
Temperature: 57°F , 14°C
Dew Point: 45°F , 7°C
Humidity: 63%
Barometer: 30.29 inHg , 1025.7 hPa
Clouds: Clear
Visibility: 10 miles , 16 km
2018/12/09 19:53 KWVI 091953Z AUTO 11004KT 10SM CLR 14/07 A3029 RMK AO2 SLP258 T01440072
KHAF - Half Moon Bay, California, USA
Distance from station: WNW 31mi, 50km
Updated: Sun, 12-09-2018 2:00pm CST
Clear
Clear
 Wind from NW
Wind: NW 8 mph , 13 km/h
Temperature: 57°F , 14°C
Dew Point: 50°F , 10°C
Humidity: 77%
Barometer: 30.31 inHg , 1026.4 hPa
Clouds: Clear
Visibility: 7 miles , 11 km
2018/12/09 20:00 KHAF 092000Z AUTO 32007KT 7SM CLR 14/10 A3031 RMK AO2
 
KHWD - Hayward, California, USA
Distance from station: N 28mi, 44km
Updated: Sun, 12-09-2018 1:54pm CST
Clear
Clear
 Wind from NNE
Wind: NNE 9 mph , 15 km/h
Temperature: 54°F , 12°C
Dew Point: 45°F , 7°C
Humidity: 72%
Barometer: 30.31 inHg , 1026.4 hPa
Clouds: Clear
Visibility: 8 miles , 13 km
2018/12/09 19:54 KHWD 091954Z 03008KT 8SM CLR 12/07 A3031 RMK AO2 SLP275 T01220067
KLVK - Livermore, California, USA
Distance from station: NNE 31mi, 51km
Updated: Sun, 12-09-2018 1:53pm CST
Mist, Overcast
Mist, Overcast
 Wind from ENE
Wind: ENE 8 mph , 13 km/h
Temperature: 46°F , 8°C
Wind Chill: 42°F , 6°C
Dew Point: 45°F , 7°C
Humidity: 93%
Barometer: 30.32 inHg , 1026.8 hPa
Summary: Mist
Clouds: Overcast
Visibility: 2 miles , 3 km
Cloud details: Overcast 600 ft
2018/12/09 19:53 KLVK 091953Z 07007KT 2SM BR OVC006 08/07 A3032 RMK AO2 CIG 005V010 SLP268 T00830072